createdAt,value
2023-01-09T00:01:40.488Z,100137.59
2023-01-09T00:04:11.456Z,100133.03
2023-01-09T00:06:40.340Z,100136.16
2023-01-09T00:09:07.902Z,100133.22
2023-01-09T00:11:35.522Z,100134.16
2023-01-09T00:14:03.574Z,100129.09
2023-01-09T00:16:31.549Z,100125.81
2023-01-09T00:19:00.449Z,100128.09
2023-01-09T00:21:27.971Z,100125.28
2023-01-09T00:23:55.963Z,100130.28
2023-01-09T00:26:23.840Z,100124.97
2023-01-09T00:28:54.204Z,100125.91
2023-01-09T00:31:22.638Z,100128.41
2023-01-09T00:34:10.510Z,100126.59
2023-01-09T00:36:38.059Z,100130.97
2023-01-09T00:39:06.556Z,100119.28
2023-01-09T00:41:42.719Z,100121.47
2023-01-09T00:44:20.487Z,100119.81
2023-01-09T00:46:53.424Z,100112.53
2023-01-09T00:49:22.078Z,100112.06
2023-01-09T00:51:49.837Z,100111.69
2023-01-09T00:54:20.043Z,100107.19
2023-01-09T00:56:47.844Z,100102.75
2023-01-09T00:59:15.565Z,100099.19
2023-01-09T01:01:43.269Z,100097.63
2023-01-09T01:04:29.354Z,100103.31
2023-01-09T01:07:15.614Z,100099.19
2023-01-09T01:09:43.295Z,100094.63
2023-01-09T01:12:10.786Z,100100.91
2023-01-09T01:14:39.531Z,100096.75
2023-01-09T01:17:08.027Z,100092.03
2023-01-09T01:19:36.432Z,100088.13
2023-01-09T01:22:04.798Z,100073.44
2023-01-09T01:24:32.496Z,100073.00
2023-01-09T01:26:59.995Z,100074.97
2023-01-09T01:29:27.896Z,100074.78
2023-01-09T01:31:55.462Z,100075.66
2023-01-09T01:34:23.619Z,100078.03
2023-01-09T01:36:51.149Z,100083.09
2023-01-09T01:39:21.672Z,100075.91
2023-01-09T01:41:49.133Z,100077.38
2023-01-09T01:45:05.895Z,100066.03
2023-01-09T01:47:45.015Z,100058.97
2023-01-09T01:50:26.782Z,100050.22
2023-01-09T01:53:07.004Z,100055.72
2023-01-09T01:55:39.238Z,100048.09
2023-01-09T01:58:11.664Z,100050.19
2023-01-09T02:00:44.690Z,100043.94
2023-01-09T02:03:16.068Z,100041.91
2023-01-09T02:05:43.902Z,100036.66
2023-01-09T02:08:12.293Z,100034.19
2023-01-09T02:10:40.933Z,100033.53
2023-01-09T02:13:09.808Z,100031.94
2023-01-09T02:15:47.614Z,100033.72
2023-01-09T02:18:27.375Z,100033.94
2023-01-09T02:21:12.639Z,100028.47
2023-01-09T02:24:18.362Z,100025.97
2023-01-09T02:27:03.763Z,100017.88
2023-01-09T02:30:01.800Z,100021.56
2023-01-09T02:32:47.038Z,100020.81
2023-01-09T02:35:28.526Z,100023.81
2023-01-09T02:38:16.074Z,100021.63
2023-01-09T02:41:13.803Z,100019.81
2023-01-09T02:43:41.870Z,100012.50
2023-01-09T02:46:35.845Z,100010.50
2023-01-09T02:49:03.364Z,100008.19
2023-01-09T02:51:53.030Z,100007.88
2023-01-09T02:54:26.149Z,100006.09
2023-01-09T02:57:24.684Z,100005.09
2023-01-09T03:00:35.048Z,100003.22
2023-01-09T03:03:34.010Z,100002.91
2023-01-09T03:06:55.125Z,99999.16
2023-01-09T03:09:28.261Z,100002.06
2023-01-09T03:12:16.538Z,100001.75
2023-01-09T03:14:50.896Z,100009.78
2023-01-09T03:17:32.210Z,100010.38
2023-01-09T03:20:04.711Z,100001.16
2023-01-09T03:22:32.345Z,100006.22
2023-01-09T03:24:59.838Z,100008.25
2023-01-09T03:27:27.757Z,99999.34
2023-01-09T03:29:56.635Z,100004.19
2023-01-09T03:32:24.176Z,100003.88
2023-01-09T03:34:51.770Z,100000.81
2023-01-09T03:37:19.372Z,100002.38
2023-01-09T03:39:46.904Z,100005.44
2023-01-09T03:42:14.536Z,100005.13
2023-01-09T03:44:41.995Z,100008.56
2023-01-09T03:47:09.473Z,100002.72
2023-01-09T03:49:36.956Z,100000.34
2023-01-09T03:52:04.709Z,100007.56
2023-01-09T03:54:32.177Z,100004.81
2023-01-09T03:56:59.714Z,100006.47
2023-01-09T03:59:27.329Z,100006.47
2023-01-09T04:01:54.942Z,100005.97
2023-01-09T04:04:22.541Z,100010.84
2023-01-09T04:06:52.833Z,99999.44
2023-01-09T04:09:20.367Z,99997.06
2023-01-09T04:11:47.847Z,100003.47
2023-01-09T04:14:15.554Z,100003.00
2023-01-09T04:16:43.590Z,100008.97
2023-01-09T04:19:11.096Z,100007.00
2023-01-09T04:21:38.547Z,100007.47
2023-01-09T04:24:06.646Z,100010.91
2023-01-09T04:26:34.098Z,100024.38
2023-01-09T04:29:01.707Z,100022.41
2023-01-09T04:31:29.219Z,100018.66
2023-01-09T04:33:56.710Z,100020.19
2023-01-09T04:36:24.236Z,100027.88
2023-01-09T04:38:51.761Z,100039.63
2023-01-09T04:41:37.812Z,100035.72
2023-01-09T04:44:06.379Z,100034.78
2023-01-09T04:46:36.888Z,100033.28
2023-01-09T04:49:04.418Z,100027.31
2023-01-09T04:51:32.042Z,100029.91
2023-01-09T04:53:59.564Z,100033.31
2023-01-09T04:56:27.082Z,100029.13
2023-01-09T04:58:54.683Z,100027.81
2023-01-09T05:01:22.493Z,100032.44
2023-01-09T05:03:50.249Z,100033.31
2023-01-09T05:06:18.332Z,100021.19
2023-01-09T05:08:45.993Z,100031.06
2023-01-09T05:11:13.471Z,100029.66
2023-01-09T05:13:41.195Z,100024.63
2023-01-09T05:16:09.286Z,100022.88
2023-01-09T05:18:37.117Z,100009.22
2023-01-09T05:21:05.182Z,100012.03
2023-01-09T05:23:32.651Z,100022.69
2023-01-09T05:26:00.653Z,100031.25
2023-01-09T05:28:29.340Z,100015.84
2023-01-09T05:30:57.017Z,100025.28
2023-01-09T05:33:24.963Z,100028.16
2023-01-09T05:35:52.479Z,100026.44
2023-01-09T05:38:19.924Z,100023.63
2023-01-09T05:40:47.397Z,100027.03
2023-01-09T05:43:14.873Z,100031.19
2023-01-09T05:45:43.089Z,100021.84
2023-01-09T05:48:10.600Z,100025.09
2023-01-09T05:50:38.107Z,100034.97
2023-01-09T05:53:06.729Z,100029.00
2023-01-09T05:55:34.418Z,100028.78
2023-01-09T05:58:02.525Z,100030.22
2023-01-09T06:00:30.174Z,100038.69
2023-01-09T06:02:57.934Z,100029.50
2023-01-09T06:05:25.838Z,100040.41
2023-01-09T06:07:53.300Z,100039.50
2023-01-09T06:10:20.957Z,100044.56
2023-01-09T06:12:50.860Z,100039.13
2023-01-09T06:15:20.686Z,100038.09
2023-01-09T06:17:48.717Z,100034.69
2023-01-09T06:20:16.332Z,100037.97
2023-01-09T06:22:45.309Z,100042.66
2023-01-09T06:25:15.134Z,100036.38
2023-01-09T06:27:42.697Z,100040.69
2023-01-09T06:30:10.999Z,100035.06
2023-01-09T06:32:38.456Z,100020.63
2023-01-09T06:35:06.840Z,100028.16
2023-01-09T06:37:34.463Z,100027.66
2023-01-09T06:40:02.007Z,100034.44
2023-01-09T06:42:30.630Z,100028.72
2023-01-09T06:44:58.191Z,100026.41
2023-01-09T06:47:25.648Z,100020.16
2023-01-09T06:49:53.223Z,100026.78
2023-01-09T06:52:20.742Z,100020.66
2023-01-09T06:54:48.199Z,100019.84
2023-01-09T06:57:16.335Z,100022.88
2023-01-09T06:59:43.921Z,100021.44
2023-01-09T07:02:21.949Z,100022.97
2023-01-09T07:04:49.577Z,100026.00
2023-01-09T07:07:17.114Z,100017.72
2023-01-09T07:09:44.661Z,100032.13
2023-01-09T07:12:12.942Z,100030.59
2023-01-09T07:14:40.577Z,100021.84
2023-01-09T07:17:08.120Z,100024.13
2023-01-09T07:19:35.638Z,100019.13
2023-01-09T07:22:03.113Z,100018.91
2023-01-09T07:24:33.216Z,100026.16
2023-01-09T07:27:00.812Z,100023.69
2023-01-09T07:29:28.294Z,100015.19
2023-01-09T07:31:55.776Z,100014.72
2023-01-09T07:34:23.315Z,100019.22
2023-01-09T07:36:51.268Z,100014.44
2023-01-09T07:39:18.812Z,100013.28
2023-01-09T07:41:46.853Z,100002.09
2023-01-09T07:44:16.461Z,100004.00
2023-01-09T07:46:44.004Z,100001.44
2023-01-09T07:49:11.531Z,99999.94
2023-01-09T07:51:43.030Z,99995.88
2023-01-09T07:54:12.663Z,99995.94
2023-01-09T07:56:41.257Z,99988.97
2023-01-09T07:59:09.240Z,99994.03
2023-01-09T08:01:37.108Z,99996.78
2023-01-09T08:04:04.823Z,100000.22
2023-01-09T08:06:32.636Z,99995.03
2023-01-09T08:09:01.740Z,99993.81
2023-01-09T08:11:29.225Z,100005.34
2023-01-09T08:13:56.732Z,100008.75
2023-01-09T08:16:24.413Z,100014.72
2023-01-09T08:18:51.939Z,100008.47
2023-01-09T08:21:19.352Z,100006.50
2023-01-09T08:23:47.879Z,100005.88
2023-01-09T08:26:15.340Z,100003.34
2023-01-09T08:28:42.869Z,100001.84
2023-01-09T08:31:10.341Z,99997.16
2023-01-09T08:33:40.421Z,99985.72
2023-01-09T08:36:08.616Z,99992.91
2023-01-09T08:38:36.166Z,99989.25
2023-01-09T08:41:23.629Z,99984.06
2023-01-09T08:44:11.267Z,99984.09
2023-01-09T08:46:57.469Z,99976.06
2023-01-09T08:49:24.906Z,99976.53
2023-01-09T08:51:52.341Z,99972.44
2023-01-09T08:54:19.875Z,99977.91
2023-01-09T08:56:47.398Z,99979.22
2023-01-09T08:59:17.866Z,99977.66
2023-01-09T09:01:45.470Z,99978.69
2023-01-09T09:04:13.045Z,99977.94
2023-01-09T09:06:40.801Z,99971.06
2023-01-09T09:09:08.382Z,99969.81
2023-01-09T09:11:36.664Z,99967.97
2023-01-09T09:14:27.369Z,99963.81
2023-01-09T09:16:55.078Z,99960.72
2023-01-09T09:19:22.739Z,99956.56
2023-01-09T09:21:50.398Z,99948.75
2023-01-09T09:24:18.079Z,99942.03
2023-01-09T09:26:45.581Z,99947.22
2023-01-09T09:29:13.197Z,99951.16
2023-01-09T09:31:40.791Z,99954.00
2023-01-09T09:34:08.974Z,99949.84
2023-01-09T09:36:36.624Z,99948.63
2023-01-09T09:39:07.199Z,99947.03
2023-01-09T09:42:25.400Z,99943.63
2023-01-09T09:45:18.367Z,99933.50
2023-01-09T09:48:19.176Z,99943.84
2023-01-09T09:51:06.868Z,99932.88
2023-01-09T09:53:55.081Z,99929.22
2023-01-09T09:56:24.480Z,99930.47
2023-01-09T09:59:01.854Z,99925.25
2023-01-09T10:02:00.355Z,99931.22
2023-01-09T10:04:32.587Z,99916.69
2023-01-09T10:07:14.059Z,99913.66
2023-01-09T10:09:54.430Z,99912.09
2023-01-09T10:12:45.168Z,99916.25
2023-01-09T10:15:31.469Z,99918.59
2023-01-09T10:18:25.494Z,99910.00
2023-01-09T10:21:03.556Z,99909.22
2023-01-09T10:23:49.119Z,99906.38
2023-01-09T10:26:38.199Z,99896.00
2023-01-09T10:29:44.916Z,99894.94
2023-01-09T10:32:46.099Z,99901.19
2023-01-09T10:35:47.965Z,99892.41
2023-01-09T10:38:25.832Z,99893.97
2023-01-09T10:41:04.027Z,99885.91
2023-01-09T10:43:37.862Z,99889.78
2023-01-09T10:46:18.432Z,99888.78
2023-01-09T10:48:52.797Z,99879.16
2023-01-09T10:51:43.522Z,99871.63
2023-01-09T10:54:23.348Z,99878.91
2023-01-09T10:57:07.294Z,99875.00
2023-01-09T10:59:36.436Z,99878.91
2023-01-09T11:02:04.435Z,99879.94
2023-01-09T11:04:36.521Z,99874.78
2023-01-09T11:07:17.210Z,99873.75
2023-01-09T11:10:09.809Z,99863.38
2023-01-09T11:12:37.730Z,99862.03
2023-01-09T11:15:31.311Z,99868.28
2023-01-09T11:18:20.179Z,99869.09
2023-01-09T11:20:48.281Z,99858.69
2023-01-09T11:23:33.672Z,99857.91
2023-01-09T11:26:03.135Z,99856.06
2023-01-09T11:28:31.443Z,99843.56
2023-01-09T11:31:02.416Z,99850.31
2023-01-09T11:33:36.556Z,99849.28
2023-01-09T11:36:15.192Z,99843.50
2023-01-09T11:38:55.933Z,99836.25
2023-01-09T11:41:34.471Z,99834.41
2023-01-09T11:44:05.153Z,99825.56
2023-01-09T11:46:43.986Z,99827.91
2023-01-09T11:49:22.883Z,99820.59
2023-01-09T11:52:15.190Z,99807.09
2023-01-09T11:55:06.813Z,99817.50
2023-01-09T11:57:34.714Z,99792.78
2023-01-09T12:00:25.840Z,99790.94
2023-01-09T12:03:02.200Z,99782.88
2023-01-09T12:05:55.440Z,99779.72
2023-01-09T12:08:51.644Z,99782.56
2023-01-09T12:11:39.786Z,99771.09
2023-01-09T12:14:31.491Z,99755.22
2023-01-09T12:18:11.165Z,99762.78
2023-01-09T12:20:59.915Z,99758.53
2023-01-09T12:23:55.026Z,99754.91
2023-01-09T12:26:24.020Z,99755.44
2023-01-09T12:29:07.340Z,99753.84
2023-01-09T12:31:58.922Z,99753.88
2023-01-09T12:34:59.205Z,99748.09
2023-01-09T12:38:05.271Z,99747.66
2023-01-09T12:41:00.176Z,99743.25
2023-01-09T12:43:50.920Z,99738.59
2023-01-09T12:46:26.821Z,99735.38
2023-01-09T12:49:29.801Z,99742.44
2023-01-09T12:52:24.436Z,99727.84
2023-01-09T12:55:05.012Z,99730.47
2023-01-09T12:57:43.071Z,99730.44
2023-01-09T13:00:22.860Z,99726.25
2023-01-09T13:03:16.176Z,99714.19
2023-01-09T13:05:49.557Z,99708.53
2023-01-09T13:08:39.071Z,99707.66
2023-01-09T13:11:20.448Z,99704.81
2023-01-09T13:14:51.334Z,99702.00
2023-01-09T13:17:30.740Z,99695.53
2023-01-09T13:19:58.355Z,99699.13
2023-01-09T13:22:29.286Z,99702.78
2023-01-09T13:25:24.984Z,99703.31
2023-01-09T13:28:00.795Z,99692.19
2023-01-09T13:31:03.784Z,99691.38
2023-01-09T13:33:37.153Z,99688.34
2023-01-09T13:36:05.882Z,99695.81
2023-01-09T13:38:36.380Z,99697.16
2023-01-09T13:41:35.615Z,99696.09
2023-01-09T13:44:28.801Z,99696.03
2023-01-09T13:47:01.207Z,99695.84
2023-01-09T13:49:41.917Z,99695.94
2023-01-09T13:52:45.607Z,99697.72
2023-01-09T13:55:16.003Z,99708.00
2023-01-09T13:58:13.682Z,99713.72
2023-01-09T14:00:44.196Z,99704.47
2023-01-09T14:03:38.751Z,99703.41
2023-01-09T14:06:13.259Z,99713.34
2023-01-09T14:08:42.086Z,99716.50
2023-01-09T14:11:11.410Z,99704.81
2023-01-09T14:13:38.958Z,99698.56
2023-01-09T14:16:20.720Z,99695.94
2023-01-09T14:19:14.470Z,99701.47
2023-01-09T14:22:00.039Z,99703.53
2023-01-09T14:24:34.493Z,99696.81
2023-01-09T14:27:02.642Z,99690.81
2023-01-09T14:29:35.843Z,99684.06
2023-01-09T14:32:26.496Z,99681.19
2023-01-09T14:35:08.194Z,99685.09
2023-01-09T14:37:40.698Z,99677.19
2023-01-09T14:40:21.885Z,99683.13
2023-01-09T14:42:57.130Z,99683.22
2023-01-09T14:45:27.779Z,99690.03
2023-01-09T14:48:02.803Z,99678.31
2023-01-09T14:50:48.865Z,99680.72
2023-01-09T14:53:28.465Z,99671.84
2023-01-09T14:55:59.656Z,99668.97
2023-01-09T14:58:33.663Z,99667.09
2023-01-09T15:01:05.123Z,99653.69
2023-01-09T15:03:51.562Z,99651.13
2023-01-09T15:06:23.148Z,99660.44
2023-01-09T15:09:12.747Z,99658.66
2023-01-09T15:11:40.917Z,99655.53
2023-01-09T15:14:18.749Z,99658.94
2023-01-09T15:16:46.358Z,99655.03
2023-01-09T15:19:16.674Z,99654.72
2023-01-09T15:21:59.098Z,99660.00
2023-01-09T15:24:29.930Z,99657.38
2023-01-09T15:27:01.963Z,99657.19
2023-01-09T15:29:30.248Z,99658.41
2023-01-09T15:32:30.419Z,99653.69
2023-01-09T15:34:58.745Z,99658.97
2023-01-09T15:37:34.521Z,99660.66
2023-01-09T15:40:08.103Z,99666.28
2023-01-09T15:42:58.059Z,99667.59
2023-01-09T15:45:44.798Z,99671.91
2023-01-09T15:48:21.846Z,99661.84
2023-01-09T15:50:58.706Z,99661.59
2023-01-09T15:53:27.998Z,99653.59
2023-01-09T15:56:31.057Z,99657.47
2023-01-09T15:59:00.582Z,99648.94
2023-01-09T16:01:36.052Z,99654.94
2023-01-09T16:04:15.814Z,99658.84
2023-01-09T16:06:50.501Z,99654.94
2023-01-09T16:09:31.240Z,99639.88
2023-01-09T16:12:02.222Z,99650.75
2023-01-09T16:14:35.323Z,99646.38
2023-01-09T16:17:08.008Z,99635.47
2023-01-09T16:19:55.418Z,99655.72
2023-01-09T16:22:36.255Z,99646.09
2023-01-09T16:25:31.678Z,99635.69
2023-01-09T16:28:15.273Z,99636.25
2023-01-09T16:31:28.652Z,99628.19
2023-01-09T16:34:07.011Z,99619.63
2023-01-09T16:36:36.322Z,99626.09
2023-01-09T16:39:04.498Z,99631.28
2023-01-09T16:41:51.144Z,99634.38
2023-01-09T16:44:19.470Z,99630.50
2023-01-09T16:46:49.827Z,99621.16
2023-01-09T16:49:29.449Z,99618.56
2023-01-09T16:51:57.233Z,99620.63
2023-01-09T16:54:24.703Z,99614.09
2023-01-09T16:56:55.219Z,99612.56
2023-01-09T16:59:29.603Z,99613.03
2023-01-09T17:01:59.731Z,99611.72
2023-01-09T17:04:30.300Z,99603.91
2023-01-09T17:06:57.746Z,99601.88
2023-01-09T17:09:27.882Z,99598.72
2023-01-09T17:11:55.327Z,99586.78
2023-01-09T17:14:24.620Z,99601.09
2023-01-09T17:16:53.553Z,99605.22
2023-01-09T17:19:21.703Z,99609.13
2023-01-09T17:21:52.465Z,99601.31
2023-01-09T17:24:41.085Z,99606.53
2023-01-09T17:27:31.006Z,99612.25
2023-01-09T17:30:03.005Z,99603.91
2023-01-09T17:32:33.674Z,99602.09
2023-01-09T17:35:04.646Z,99600.56
2023-01-09T17:37:32.260Z,99587.81
2023-01-09T17:40:03.922Z,99594.06
2023-01-09T17:42:33.127Z,99583.91
2023-01-09T17:45:02.179Z,99592.97
2023-01-09T17:47:30.197Z,99589.00
2023-01-09T17:50:00.770Z,99595.41
2023-01-09T17:52:29.137Z,99584.31
2023-01-09T17:54:57.089Z,99581.97
2023-01-09T17:57:25.219Z,99579.44
2023-01-09T17:59:52.689Z,99572.97
2023-01-09T18:02:20.770Z,99579.97
2023-01-09T18:04:50.127Z,99571.41
2023-01-09T18:07:21.692Z,99568.56
2023-01-09T18:09:50.239Z,99571.34
2023-01-09T18:12:19.755Z,99577.03
2023-01-09T18:14:48.726Z,99567.59
2023-01-09T18:17:17.063Z,99582.91
2023-01-09T18:19:46.421Z,99578.81
2023-01-09T18:22:18.957Z,99580.59
2023-01-09T18:24:49.698Z,99570.22
2023-01-09T18:27:18.484Z,99561.47
2023-01-09T18:29:50.389Z,99552.16
2023-01-09T18:32:21.218Z,99549.75
2023-01-09T18:34:52.089Z,99549.19
2023-01-09T18:37:21.621Z,99548.22
2023-01-09T18:39:50.635Z,99533.13
2023-01-09T18:42:19.552Z,99529.78
2023-01-09T18:44:51.825Z,99528.91
2023-01-09T18:47:19.351Z,99525.72
2023-01-09T18:49:50.837Z,99519.28
2023-01-09T18:52:21.416Z,99523.53
2023-01-09T18:55:12.031Z,99511.28
2023-01-09T18:57:41.011Z,99508.16
2023-01-09T19:00:14.395Z,99497.25
2023-01-09T19:02:45.607Z,99499.84
2023-01-09T19:05:15.624Z,99501.91
2023-01-09T19:07:48.292Z,99494.31
2023-01-09T19:10:18.789Z,99489.41
2023-01-09T19:12:48.842Z,99501.84
2023-01-09T19:15:18.403Z,99507.63
2023-01-09T19:17:46.912Z,99497.81
2023-01-09T19:20:14.800Z,99500.66
2023-01-09T19:23:06.457Z,99500.03
2023-01-09T19:25:34.785Z,99489.16
2023-01-09T19:28:03.877Z,99496.13
2023-01-09T19:30:36.900Z,99502.97
2023-01-09T19:33:08.088Z,99493.72
2023-01-09T19:35:38.501Z,99489.31
2023-01-09T19:38:12.511Z,99487.47
2023-01-09T19:40:41.641Z,99481.09
2023-01-09T19:43:28.231Z,99493.75
2023-01-09T19:46:00.858Z,99498.16
2023-01-09T19:48:36.936Z,99492.25
2023-01-09T19:51:10.325Z,99490.94
2023-01-09T19:53:51.559Z,99485.28
2023-01-09T19:56:23.333Z,99482.63
2023-01-09T19:58:59.314Z,99489.91
2023-01-09T20:01:36.085Z,99479.00
2023-01-09T20:04:14.541Z,99474.91
2023-01-09T20:06:53.999Z,99482.94
2023-01-09T20:09:24.237Z,99482.41
2023-01-09T20:11:59.495Z,99480.84
2023-01-09T20:14:31.263Z,99456.88
2023-01-09T20:17:02.395Z,99466.94
2023-01-09T20:19:34.065Z,99468.50
2023-01-09T20:22:05.484Z,99452.09
2023-01-09T20:24:35.668Z,99448.97
2023-01-09T20:27:14.033Z,99441.16
2023-01-09T20:29:45.741Z,99431.56
2023-01-09T20:32:34.258Z,99433.69
2023-01-09T20:35:06.183Z,99433.47
2023-01-09T20:37:45.557Z,99438.06
2023-01-09T20:40:19.979Z,99450.25
2023-01-09T20:42:47.526Z,99444.94
2023-01-09T20:45:16.253Z,99450.41
2023-01-09T20:47:48.174Z,99437.47
2023-01-09T20:50:22.583Z,99440.06
2023-01-09T20:52:52.027Z,99445.97
2023-01-09T20:55:24.664Z,99439.59
2023-01-09T20:58:15.409Z,99426.03
2023-01-09T21:00:47.490Z,99422.75
2023-01-09T21:03:17.028Z,99416.03
2023-01-09T21:05:44.784Z,99414.00
2023-01-09T21:08:13.543Z,99413.72
2023-01-09T21:10:44.018Z,99407.22
2023-01-09T21:13:13.909Z,99409.28
2023-01-09T21:15:41.566Z,99408.75
2023-01-09T21:18:29.207Z,99413.38
2023-01-09T21:20:56.857Z,99410.16
2023-01-09T21:23:27.118Z,99420.25
2023-01-09T21:25:54.595Z,99421.06
2023-01-09T21:28:23.735Z,99409.13
2023-01-09T21:30:51.235Z,99403.69
2023-01-09T21:33:23.062Z,99414.63
2023-01-09T21:35:58.167Z,99405.34
2023-01-09T21:38:33.643Z,99412.34
2023-01-09T21:41:20.012Z,99416.22
2023-01-09T21:44:05.992Z,99418.28
2023-01-09T21:46:52.198Z,99418.84
2023-01-09T21:49:23.374Z,99406.88
2023-01-09T21:51:51.866Z,99414.94
2023-01-09T21:54:23.476Z,99410.56
2023-01-09T21:56:53.035Z,99411.06
2023-01-09T21:59:21.026Z,99387.53
2023-01-09T22:01:50.230Z,99385.97
2023-01-09T22:04:21.117Z,99377.13
2023-01-09T22:06:48.659Z,99371.19
2023-01-09T22:09:16.681Z,99378.50
2023-01-09T22:11:44.864Z,99367.03
2023-01-09T22:14:19.155Z,99364.94
2023-01-09T22:16:47.533Z,99357.19
2023-01-09T22:19:18.157Z,99354.06
2023-01-09T22:21:48.461Z,99347.78
2023-01-09T22:24:19.306Z,99344.44
2023-01-09T22:26:46.863Z,99347.84
2023-01-09T22:29:16.363Z,99347.56
2023-01-09T22:31:44.148Z,99344.19
2023-01-09T22:34:16.774Z,99338.72
2023-01-09T22:36:46.107Z,99328.31
2023-01-09T22:39:16.546Z,99324.88
2023-01-09T22:41:44.417Z,99328.31
2023-01-09T22:44:14.561Z,99310.31
2023-01-09T22:46:42.062Z,99307.72
2023-01-09T22:49:12.608Z,99317.06
2023-01-09T22:51:40.251Z,99305.72
2023-01-09T22:54:08.321Z,99295.63
2023-01-09T22:56:36.267Z,99294.34
2023-01-09T22:59:04.188Z,99290.66
2023-01-09T23:01:31.763Z,99281.66
2023-01-09T23:03:59.284Z,99296.75
2023-01-09T23:06:26.792Z,99288.25
2023-01-09T23:08:54.832Z,99282.81
2023-01-09T23:11:45.698Z,99277.97
2023-01-09T23:14:17.736Z,99271.25
2023-01-09T23:16:45.450Z,99269.88
2023-01-09T23:19:14.683Z,99268.59
2023-01-09T23:21:43.528Z,99277.63
2023-01-09T23:24:12.587Z,99279.09
2023-01-09T23:26:40.246Z,99274.72
2023-01-09T23:29:08.336Z,99266.72
2023-01-09T23:31:37.807Z,99267.22
2023-01-09T23:34:08.156Z,99249.50
2023-01-09T23:36:37.577Z,99257.25
2023-01-09T23:39:09.016Z,99256.06
2023-01-09T23:41:56.066Z,99247.75
2023-01-09T23:44:27.139Z,99252.41
2023-01-09T23:46:54.730Z,99249.63
2023-01-09T23:49:22.624Z,99256.53
2023-01-09T23:51:50.240Z,99246.47
2023-01-09T23:54:17.702Z,99227.72
2023-01-09T23:56:45.282Z,99228.72
2023-01-09T23:59:14.699Z,99238.09
